Time;durP1;ratioP1;P1;durP2;ratioP2;P2;SDS_P1;SDS_P2;PMS_P1;PMS_P2;Temp;Humidity;BMP_temperature;BMP_pressure;BME280_temperature;BME280_humidity;BME280_pressure;Samples;Min_cycle;Max_cycle;Signal;HPM_P1;HPM_P2
2022/05/26 00:01:45;;;;;;;0.40;0.40;;;12.10;1.00;;;;;;5034037;28;20949;-79
2022/05/26 00:04:10;;;;;;;0.40;0.40;;;12.00;1.00;;;;;;5035736;28;20278;-79
2022/05/26 00:06:36;;;;;;;0.30;0.30;;;11.90;1.00;;;;;;5038757;28;20181;-78
2022/05/26 00:09:01;;;;;;;0.50;0.50;;;11.90;1.00;;;;;;5037927;28;20183;-79
2022/05/26 00:11:33;;;;;;;0.50;0.50;;;11.80;1.00;;;;;;5036782;28;20191;-78
2022/05/26 00:14:07;;;;;;;0.60;0.60;;;11.80;1.00;;;;;;5035602;28;20271;-79
2022/05/26 00:16:33;;;;;;;0.67;0.67;;;11.80;1.00;;;;;;5036068;28;20211;-77
2022/05/26 00:18:59;;;;;;;0.50;0.50;;;11.70;1.00;;;;;;5034601;28;20239;-77
2022/05/26 00:21:24;;;;;;;0.50;0.50;;;11.70;1.00;;;;;;5034983;28;20238;-78
2022/05/26 00:23:50;;;;;;;0.50;0.50;;;11.60;1.00;;;;;;5035286;28;20171;-79
2022/05/26 00:26:17;;;;;;;0.50;0.50;;;11.60;1.00;;;;;;5034156;28;20187;-78
2022/05/26 00:28:43;;;;;;;0.53;0.53;;;11.60;1.00;;;;;;5034345;28;20180;-78
2022/05/26 00:31:08;;;;;;;0.57;0.57;;;11.60;1.00;;;;;;5033259;28;20723;-78
2022/05/26 00:33:34;;;;;;;0.50;0.50;;;11.70;1.00;;;;;;5033700;28;20180;-78
2022/05/26 00:36:05;;;;;;;0.50;0.50;;;11.70;1.00;;;;;;5033330;28;20207;-78
2022/05/26 00:38:30;;;;;;;0.60;0.60;;;11.70;1.00;;;;;;5033168;28;20207;-78
2022/05/26 00:41:02;;;;;;;0.53;0.53;;;11.70;1.00;;;;;;5034954;28;20191;-77
2022/05/26 00:43:28;;;;;;;0.60;0.60;;;11.60;1.00;;;;;;5037085;28;20637;-78
2022/05/26 00:46:04;;;;;;;0.50;0.50;;;11.60;1.00;;;;;;5037405;28;20225;-79
2022/05/26 00:48:47;;;;;;;0.60;0.60;;;11.60;1.00;;;;;;5037442;28;20171;-78
2022/05/26 00:51:15;;;;;;;0.50;0.50;;;11.60;1.00;;;;;;5036329;28;20561;-78
2022/05/26 00:53:45;;;;;;;0.70;0.70;;;11.50;1.00;;;;;;5037396;28;20172;-78
2022/05/26 00:56:25;;;;;;;0.60;0.60;;;11.50;1.00;;;;;;5037772;28;20191;-78
2022/05/26 00:58:56;;;;;;;0.40;0.40;;;11.60;1.00;;;;;;5040667;28;20195;-77
2022/05/26 01:01:22;;;;;;;0.60;0.60;;;11.60;1.00;;;;;;5047347;28;20192;-78
2022/05/26 01:03:55;;;;;;;0.50;0.50;;;11.70;1.00;;;;;;5048335;28;20274;-78
2022/05/26 01:06:28;;;;;;;0.60;0.60;;;11.70;1.00;;;;;;5047904;28;20183;-77
2022/05/26 01:08:57;;;;;;;0.40;0.40;;;11.60;1.00;;;;;;5047281;28;20183;-78
2022/05/26 01:11:24;;;;;;;0.60;0.60;;;11.60;1.00;;;;;;5047279;28;20203;-78
2022/05/26 01:13:55;;;;;;;0.40;0.40;;;11.60;1.00;;;;;;5043671;28;20183;-78
2022/05/26 01:16:59;;;;;;;0.50;0.50;;;11.60;1.00;;;;;;5045288;28;20183;-77
2022/05/26 01:20:02;;;;;;;0.70;0.70;;;11.60;1.00;;;;;;5047751;28;20215;-77
2022/05/26 01:22:59;;;;;;;0.50;0.50;;;11.60;1.00;;;;;;5041688;28;20242;-78
2022/05/26 01:26:07;;;;;;;0.60;0.60;;;11.50;1.00;;;;;;5042493;28;20183;-76
2022/05/26 01:29:03;;;;;;;0.50;0.50;;;11.50;1.00;;;;;;5046016;28;20175;-77
2022/05/26 01:31:57;;;;;;;0.60;0.60;;;11.30;1.00;;;;;;5045034;28;20211;-77
2022/05/26 01:35:04;;;;;;;0.50;0.50;;;11.10;1.00;;;;;;5046083;28;20216;-77
2022/05/26 01:37:38;;;;;;;0.60;0.60;;;10.90;1.00;;;;;;5043867;28;20176;-77
2022/05/26 01:40:35;;;;;;;0.53;0.53;;;10.90;1.00;;;;;;5046561;28;20202;-79
2022/05/26 01:43:18;;;;;;;0.60;0.60;;;10.90;1.00;;;;;;5047456;28;20172;-78
2022/05/26 01:45:53;;;;;;;0.60;0.60;;;10.80;1.00;;;;;;5051242;28;20239;-78
2022/05/26 01:48:42;;;;;;;0.60;0.60;;;10.80;1.00;;;;;;5050269;28;20187;-77
2022/05/26 01:51:20;;;;;;;0.60;0.60;;;10.80;1.00;;;;;;5047303;28;20187;-77
2022/05/26 01:54:09;;;;;;;0.60;0.60;;;10.80;1.00;;;;;;5045175;28;20171;-78
2022/05/26 01:56:57;;;;;;;0.60;0.60;;;10.80;1.00;;;;;;5048979;28;20226;-77
2022/05/26 01:59:30;;;;;;;0.67;0.67;;;10.80;1.00;;;;;;5036764;28;20226;-77
2022/05/26 02:02:03;;;;;;;0.60;0.60;;;10.70;1.00;;;;;;5038421;28;20196;-79
2022/05/26 02:04:34;;;;;;;0.70;0.70;;;10.70;1.00;;;;;;5038473;28;20187;-78
2022/05/26 02:07:30;;;;;;;0.50;0.50;;;10.70;1.00;;;;;;5039651;28;20271;-78
2022/05/26 02:10:00;;;;;;;0.60;0.60;;;10.70;1.00;;;;;;5039534;28;20183;-78
2022/05/26 02:12:31;;;;;;;0.60;0.60;;;10.80;1.00;;;;;;5036671;28;20200;-78
2022/05/26 02:15:03;;;;;;;0.50;0.50;;;10.80;1.00;;;;;;5037492;28;20219;-78
2022/05/26 02:17:35;;;;;;;0.60;0.60;;;10.80;1.00;;;;;;5037858;28;20203;-78
2022/05/26 02:20:34;;;;;;;0.60;0.60;;;10.80;1.00;;;;;;5037165;28;20180;-78
2022/05/26 02:23:16;;;;;;;0.50;0.50;;;10.80;1.00;;;;;;5029728;28;20230;-79
2022/05/26 02:25:42;;;;;;;0.60;0.60;;;10.80;1.00;;;;;;5037317;28;20225;-78
2022/05/26 02:28:09;;;;;;;0.60;0.60;;;10.80;1.00;;;;;;5037166;28;20649;-78
2022/05/26 02:30:41;;;;;;;0.60;0.60;;;10.80;1.00;;;;;;5037078;28;20172;-78
2022/05/26 02:33:13;;;;;;;0.50;0.50;;;10.90;1.00;;;;;;5037821;28;20182;-79
2022/05/26 02:35:43;;;;;;;0.60;0.60;;;10.80;1.00;;;;;;5038955;28;20219;-78
2022/05/26 02:38:15;;;;;;;0.50;0.50;;;10.80;1.00;;;;;;5039224;28;20172;-78
2022/05/26 02:40:44;;;;;;;0.50;0.50;;;10.80;1.00;;;;;;5037593;28;20180;-78
2022/05/26 02:43:23;;;;;;;0.60;0.60;;;10.70;1.00;;;;;;5037908;28;20168;-79
2022/05/26 02:45:58;;;;;;;0.50;0.50;;;10.70;1.00;;;;;;5037609;28;20199;-78
2022/05/26 02:48:33;;;;;;;0.50;0.50;;;10.70;1.00;;;;;;5037906;28;20255;-78
2022/05/26 02:51:22;;;;;;;0.50;0.50;;;10.60;1.00;;;;;;5037561;28;20191;-78
2022/05/26 02:54:05;;;;;;;0.50;0.50;;;10.60;1.00;;;;;;5036733;28;20175;-78
2022/05/26 02:56:55;;;;;;;0.50;0.50;;;10.60;1.00;;;;;;5036084;28;20266;-78
2022/05/26 02:59:42;;;;;;;0.50;0.50;;;10.50;1.00;;;;;;5034653;28;20198;-77
2022/05/26 03:02:28;;;;;;;0.60;0.60;;;10.50;1.00;;;;;;5036869;28;20257;-78
2022/05/26 03:05:02;;;;;;;0.50;0.50;;;10.50;1.00;;;;;;5035050;28;20202;-77
2022/05/26 03:07:31;;;;;;;0.40;0.40;;;10.40;1.00;;;;;;5036051;28;20711;-77
2022/05/26 03:09:57;;;;;;;0.43;0.43;;;10.40;1.00;;;;;;5036647;28;20175;-78
2022/05/26 03:12:29;;;;;;;0.60;0.60;;;10.40;1.00;;;;;;5037181;28;20196;-78
2022/05/26 03:14:55;;;;;;;0.53;0.53;;;10.30;1.00;;;;;;5035109;28;20265;-78
2022/05/26 03:17:21;;;;;;;0.50;0.50;;;10.40;1.00;;;;;;5034902;28;20186;-77
2022/05/26 03:19:48;;;;;;;0.53;0.53;;;10.30;1.00;;;;;;5033968;28;20258;-77
2022/05/26 03:22:14;;;;;;;0.50;0.50;;;10.40;1.00;;;;;;5034849;28;20199;-78
2022/05/26 03:24:40;;;;;;;0.60;0.60;;;10.40;1.00;;;;;;5035341;28;20616;-78
2022/05/26 03:27:06;;;;;;;0.50;0.50;;;10.30;1.00;;;;;;5034699;28;20199;-78
2022/05/26 03:29:33;;;;;;;0.50;0.50;;;10.30;1.00;;;;;;5036856;28;20183;-79
2022/05/26 03:31:58;;;;;;;0.60;0.60;;;10.20;1.00;;;;;;5036395;28;20200;-77
2022/05/26 03:42:38;;;;;;;0.57;0.57;;;10.20;1.00;;;;;;5040784;28;20241;-77
2022/05/26 03:45:05;;;;;;;0.50;0.50;;;10.20;1.00;;;;;;5038958;28;20183;-77
2022/05/26 03:47:31;;;;;;;0.60;0.60;;;10.10;1.00;;;;;;5038827;28;20180;-77
2022/05/26 03:49:57;;;;;;;0.57;0.57;;;10.10;1.00;;;;;;5036389;28;20186;-77
2022/05/26 03:52:23;;;;;;;0.50;0.50;;;10.10;1.00;;;;;;5036395;28;20188;-77
2022/05/26 03:54:49;;;;;;;0.47;0.47;;;10.10;1.00;;;;;;5036057;28;20210;-78
2022/05/26 03:57:22;;;;;;;0.60;0.60;;;10.10;1.00;;;;;;5035768;28;20182;-78
2022/05/26 03:59:47;;;;;;;0.60;0.60;;;10.10;1.00;;;;;;5058424;22;20220;-78
2022/05/26 04:02:13;;;;;;;0.53;0.53;;;10.20;1.00;;;;;;5034526;28;20192;-77
2022/05/26 04:04:38;;;;;;;0.50;0.50;;;10.20;1.00;;;;;;5033826;28;20493;-77
2022/05/26 04:07:04;;;;;;;0.60;0.60;;;10.30;1.00;;;;;;5033846;28;20168;-78
2022/05/26 04:09:29;;;;;;;0.53;0.53;;;10.40;1.00;;;;;;5033163;28;20172;-77
2022/05/26 04:11:55;;;;;;;0.50;0.50;;;10.50;1.00;;;;;;5033251;28;20676;-78
2022/05/26 04:14:21;;;;;;;0.60;0.60;;;10.50;1.00;;;;;;5033062;28;20204;-78
2022/05/26 04:16:46;;;;;;;0.60;0.60;;;10.50;1.00;;;;;;5035653;28;20180;-77
2022/05/26 04:19:12;;;;;;;0.60;0.60;;;10.70;1.00;;;;;;5035312;28;20172;-76
2022/05/26 04:22:14;;;;;;;0.57;0.57;;;10.60;1.00;;;;;;5035992;28;20200;-78
2022/05/26 04:24:23;;;;;;;0.60;0.60;;;10.70;1.00;;;;;;5035653;28;20175;-76
2022/05/26 04:26:49;;;;;;;0.60;0.60;;;10.80;1.00;;;;;;5035458;28;20183;-77
2022/05/26 04:29:14;;;;;;;0.50;0.50;;;10.90;1.00;;;;;;5035163;28;20190;-77
2022/05/26 04:31:40;;;;;;;0.50;0.50;;;11.00;1.00;;;;;;5035625;28;20325;-77
2022/05/26 04:34:06;;;;;;;0.57;0.57;;;11.20;1.00;;;;;;5035310;28;20180;-77
2022/05/26 04:36:32;;;;;;;0.50;0.50;;;11.40;1.00;;;;;;5035662;28;20267;-77
2022/05/26 04:38:57;;;;;;;0.50;0.50;;;11.60;1.00;;;;;;5034433;28;20258;-76
2022/05/26 04:41:23;;;;;;;0.40;0.40;;;11.70;1.00;;;;;;5034705;28;20206;-77
2022/05/26 04:43:48;;;;;;;0.40;0.40;;;11.90;1.00;;;;;;5035480;28;20283;-76
2022/05/26 04:46:17;;;;;;;0.50;0.50;;;12.10;1.00;;;;;;5035198;28;20184;-77
2022/05/26 04:48:43;;;;;;;0.50;0.50;;;12.20;1.00;;;;;;5034927;28;20581;-77
2022/05/26 04:51:09;;;;;;;0.43;0.43;;;12.40;1.00;;;;;;5034449;28;20230;-76
2022/05/26 04:53:34;;;;;;;0.40;0.40;;;12.60;1.00;;;;;;5034883;28;20183;-77
2022/05/26 04:56:00;;;;;;;0.40;0.40;;;12.70;1.00;;;;;;5034832;28;20295;-77
2022/05/26 04:58:25;;;;;;;0.43;0.43;;;12.80;1.00;;;;;;5035423;28;20723;-77
2022/05/26 05:00:51;;;;;;;0.30;0.30;;;13.00;1.00;;;;;;5034185;28;20223;-76
2022/05/26 05:03:17;;;;;;;0.40;0.40;;;13.20;1.00;;;;;;5034779;28;20178;-76
2022/05/26 05:05:42;;;;;;;0.40;0.40;;;13.30;99.90;;;;;;5034699;28;20267;-77
2022/05/26 05:08:08;;;;;;;0.37;0.37;;;13.60;99.90;;;;;;5034677;28;20594;-77
2022/05/26 05:10:34;;;;;;;0.40;0.40;;;13.70;1.00;;;;;;5033907;28;20203;-76
2022/05/26 05:12:59;;;;;;;0.40;0.40;;;13.70;1.00;;;;;;5034730;28;20545;-76
2022/05/26 05:15:34;;;;;;;0.40;0.40;;;13.60;99.90;;;;;;5034733;28;20223;-78
2022/05/26 05:18:00;;;;;;;0.30;0.30;;;13.60;99.90;;;;;;5035437;28;20176;-78
2022/05/26 05:20:26;;;;;;;0.40;0.40;;;13.60;1.00;;;;;;5035404;28;20183;-78
2022/05/26 05:22:57;;;;;;;0.40;0.40;;;13.60;1.00;;;;;;5035730;28;20231;-77
2022/05/26 05:25:32;;;;;;;0.40;0.40;;;13.60;99.90;;;;;;5036557;28;20176;-78
2022/05/26 05:28:10;;;;;;;0.40;0.40;;;13.90;1.00;;;;;;5038178;28;20280;-77
2022/05/26 05:30:41;;;;;;;0.40;0.40;;;14.00;1.00;;;;;;5034047;28;20187;-77
2022/05/26 05:33:15;;;;;;;0.30;0.30;;;14.30;1.00;;;;;;5034613;28;20199;-78
2022/05/26 05:35:52;;;;;;;0.40;0.40;;;14.50;99.90;;;;;;5034347;28;20204;-78
2022/05/26 05:38:19;;;;;;;0.40;0.40;;;14.80;1.00;;;;;;5034819;28;20221;-77
2022/05/26 05:40:45;;;;;;;0.47;0.47;;;14.90;1.00;;;;;;5034432;28;20175;-77
2022/05/26 05:43:11;;;;;;;0.30;0.30;;;14.90;99.90;;;;;;5033765;28;20202;-78
2022/05/26 05:45:38;;;;;;;0.30;0.30;;;15.00;99.90;;;;;;5034783;28;20527;-78
2022/05/26 05:48:04;;;;;;;0.40;0.40;;;15.10;1.00;;;;;;5035405;28;20183;-77
2022/05/26 05:50:29;;;;;;;0.30;0.30;;;15.10;1.00;;;;;;5033677;28;20172;-78
2022/05/26 05:52:55;;;;;;;0.40;0.40;;;15.10;1.00;;;;;;5034173;28;20636;-78
2022/05/26 05:55:20;;;;;;;0.40;0.40;;;15.10;1.00;;;;;;5033817;28;20215;-77
2022/05/26 05:57:46;;;;;;;0.40;0.40;;;15.20;1.00;;;;;;5033805;28;20602;-77
2022/05/26 06:00:12;;;;;;;0.40;0.40;;;15.30;49.00;;;;;;5033234;28;20657;-76
2022/05/26 06:02:38;;;;;;;0.40;0.40;;;15.30;99.90;;;;;;5033625;28;20191;-75
2022/05/26 06:05:05;;;;;;;0.30;0.30;;;15.40;99.90;;;;;;5034111;28;20233;-76
2022/05/26 06:07:30;;;;;;;0.40;0.40;;;15.60;1.00;;;;;;5033830;28;20171;-75
2022/05/26 06:09:56;;;;;;;0.40;0.40;;;15.80;99.90;;;;;;5033009;28;20771;-77
2022/05/26 06:12:22;;;;;;;0.30;0.30;;;15.80;1.00;;;;;;5033151;28;20202;-75
2022/05/26 06:14:49;;;;;;;0.30;0.30;;;15.80;99.90;;;;;;5032790;28;20665;-76
2022/05/26 06:17:15;;;;;;;0.40;0.40;;;15.80;99.90;;;;;;5032940;28;20550;-77
2022/05/26 06:19:41;;;;;;;0.40;0.40;;;15.80;99.90;;;;;;5031457;28;20178;-76
2022/05/26 06:22:13;;;;;;;0.40;0.40;;;15.90;99.90;;;;;;5033051;28;20227;-77
2022/05/26 06:24:40;;;;;;;0.20;0.20;;;16.00;99.90;;;;;;5033173;28;20172;-75
2022/05/26 06:29:51;;;;;;;0.50;0.50;;;16.20;1.00;;;;;;5031256;28;20910;-75
2022/05/26 06:37:51;;;;;;;0.50;0.50;;;16.60;1.00;;;;;;5033159;28;20175;-75
2022/05/26 06:40:17;;;;;;;0.40;0.40;;;16.50;1.00;;;;;;5012537;28;20177;-74
2022/05/26 06:42:44;;;;;;;0.30;0.30;;;16.60;1.00;;;;;;5031252;28;20199;-76
2022/05/26 06:45:11;;;;;;;0.37;0.37;;;16.60;1.00;;;;;;5032248;28;20206;-75
2022/05/26 06:47:37;;;;;;;0.40;0.40;;;16.50;1.00;;;;;;5033160;28;20659;-75
2022/05/26 06:50:03;;;;;;;0.40;0.40;;;16.40;1.00;;;;;;5032277;28;20172;-74
2022/05/26 06:52:28;;;;;;;0.37;0.37;;;16.30;1.00;;;;;;5032155;28;20206;-75
2022/05/26 06:54:56;;;;;;;0.30;0.30;;;16.40;1.00;;;;;;5032328;28;20207;-76
2022/05/26 06:57:21;;;;;;;0.40;0.40;;;16.40;1.00;;;;;;5032251;28;20172;-75
2022/05/26 06:59:47;;;;;;;0.30;0.30;;;16.50;1.00;;;;;;5031612;28;20622;-76
2022/05/26 07:02:13;;;;;;;0.30;0.30;;;16.50;1.00;;;;;;5032157;28;20192;-76
2022/05/26 07:04:41;;;;;;;0.30;0.30;;;16.60;1.00;;;;;;5032504;28;20207;-76
2022/05/26 07:07:07;;;;;;;0.40;0.40;;;16.70;1.00;;;;;;5033104;28;20183;-75
2022/05/26 07:09:33;;;;;;;0.40;0.40;;;16.80;1.00;;;;;;5032196;28;20242;-76
2022/05/26 07:11:59;;;;;;;0.40;0.40;;;17.00;1.00;;;;;;5032564;28;20429;-76
2022/05/26 07:14:25;;;;;;;0.33;0.33;;;17.20;1.00;;;;;;5032348;28;20203;-74
2022/05/26 07:16:51;;;;;;;0.30;0.30;;;17.50;1.00;;;;;;5032322;28;20180;-76
2022/05/26 07:19:18;;;;;;;0.30;0.30;;;17.70;1.00;;;;;;5031748;28;20175;-76
2022/05/26 07:21:49;;;;;;;0.40;0.40;;;17.60;1.00;;;;;;5032485;28;20283;-76
2022/05/26 07:24:18;;;;;;;0.33;0.33;;;17.60;1.00;;;;;;5032491;28;20182;-77
2022/05/26 07:26:44;;;;;;;0.30;0.30;;;17.90;1.00;;;;;;5030076;28;20176;-77
2022/05/26 07:29:09;;;;;;;0.20;0.20;;;18.40;1.00;;;;;;5031903;28;20195;-76
2022/05/26 07:31:35;;;;;;;0.30;0.30;;;18.90;1.00;;;;;;5032152;28;20238;-77
2022/05/26 07:34:01;;;;;;;0.30;0.30;;;19.30;1.00;;;;;;5031104;28;20187;-76
2022/05/26 07:42:01;;;;;;;0.30;0.30;;;19.50;1.00;;;;;;5032527;28;20221;-75
2022/05/26 07:44:29;;;;;;;0.30;0.30;;;19.50;1.00;;;;;;5031468;28;20597;-75
2022/05/26 07:46:55;;;;;;;0.30;0.30;;;19.50;1.00;;;;;;5030578;28;20266;-76
2022/05/26 07:49:21;;;;;;;0.23;0.23;;;19.50;1.00;;;;;;5030482;28;20235;-76
2022/05/26 07:51:46;;;;;;;0.40;0.40;;;19.80;1.00;;;;;;5030787;28;20579;-76
2022/05/26 07:54:12;;;;;;;0.30;0.30;;;19.80;1.00;;;;;;5031613;28;20172;-76
2022/05/26 07:56:38;;;;;;;0.30;0.30;;;19.90;1.00;;;;;;5031707;28;20310;-76
2022/05/26 07:59:05;;;;;;;0.30;0.30;;;20.10;1.00;;;;;;5030592;28;20187;-76
2022/05/26 08:01:31;;;;;;;0.30;0.30;;;20.20;1.00;;;;;;5031145;28;20685;-75
2022/05/26 08:03:57;;;;;;;0.30;0.30;;;20.30;1.00;;;;;;5032195;28;20296;-77
2022/05/26 08:06:22;;;;;;;0.30;0.30;;;20.30;1.00;;;;;;5032104;28;20645;-76
2022/05/26 08:08:48;;;;;;;0.27;0.27;;;19.90;1.00;;;;;;5030835;28;20667;-76
2022/05/26 08:11:14;;;;;;;0.30;0.30;;;19.90;1.00;;;;;;5031165;28;20196;-75
2022/05/26 08:13:39;;;;;;;0.30;0.30;;;19.70;1.00;;;;;;5031121;28;20241;-75
2022/05/26 08:16:05;;;;;;;0.40;0.40;;;19.70;1.00;;;;;;5031179;28;20807;-75
2022/05/26 08:18:32;;;;;;;0.30;0.30;;;19.70;1.00;;;;;;5031508;28;20566;-74
2022/05/26 08:21:13;;;;;;;0.33;0.33;;;19.70;1.00;;;;;;5030900;28;20227;-75
2022/05/26 08:23:39;;;;;;;0.30;0.30;;;19.90;1.00;;;;;;5031438;28;20179;-74
2022/05/26 08:26:05;;;;;;;0.30;0.30;;;19.90;1.00;;;;;;5031416;28;20180;-74
2022/05/26 08:28:31;;;;;;;0.40;0.40;;;19.80;1.00;;;;;;5031352;28;20637;-75
2022/05/26 08:30:57;;;;;;;0.30;0.30;;;19.90;1.00;;;;;;5030741;28;20208;-74
2022/05/26 08:33:22;;;;;;;0.30;0.30;;;19.80;1.00;;;;;;5031340;28;20258;-74
2022/05/26 08:35:48;;;;;;;0.30;0.30;;;19.90;1.00;;;;;;5031098;28;20307;-76
2022/05/26 08:38:13;;;;;;;0.30;0.30;;;19.70;1.00;;;;;;5023549;28;20566;-76
2022/05/26 08:40:49;;;;;;;0.30;0.30;;;19.80;1.00;;;;;;5016465;28;20615;-75
2022/05/26 08:43:23;;;;;;;0.30;0.30;;;19.90;1.00;;;;;;5015065;28;20176;-76
2022/05/26 08:45:51;;;;;;;0.20;0.20;;;19.90;1.00;;;;;;5031228;28;20187;-76
2022/05/26 08:48:41;;;;;;;0.30;0.30;;;20.10;1.00;;;;;;5030948;28;20168;-75
2022/05/26 08:51:12;;;;;;;0.30;0.30;;;20.00;1.00;;;;;;5029713;28;20618;-76
2022/05/26 08:53:40;;;;;;;0.23;0.23;;;20.00;1.00;;;;;;5030983;28;20869;-75
2022/05/26 08:56:09;;;;;;;0.37;0.30;;;20.10;1.00;;;;;;5031220;28;20212;-75
2022/05/26 08:58:43;;;;;;;0.30;0.30;;;20.30;1.00;;;;;;5031095;28;20176;-75
2022/05/26 09:01:12;;;;;;;0.30;0.30;;;20.60;1.00;;;;;;5031523;28;20683;-75
2022/05/26 09:03:38;;;;;;;0.30;0.30;;;20.90;1.00;;;;;;5034638;28;20179;-74
2022/05/26 09:06:10;;;;;;;0.30;0.30;;;20.90;1.00;;;;;;5034351;28;20180;-75
2022/05/26 09:14:27;;;;;;;0.40;0.40;;;20.90;1.00;;;;;;5034546;28;20262;-75
2022/05/26 09:16:59;;;;;;;0.37;0.37;;;20.90;1.00;;;;;;5035821;28;20191;-78
2022/05/26 09:19:46;;;;;;;0.40;0.40;;;20.80;1.00;;;;;;5034621;28;20175;-78
2022/05/26 09:22:39;;;;;;;0.30;0.30;;;20.60;1.00;;;;;;5030537;28;20200;-76
2022/05/26 09:25:10;;;;;;;0.40;0.40;;;20.40;1.00;;;;;;5027064;28;20188;-76
2022/05/26 09:27:37;;;;;;;0.30;0.30;;;20.40;1.00;;;;;;5034387;28;20184;-75
2022/05/26 09:30:22;;;;;;;0.20;0.20;;;20.10;1.00;;;;;;5033869;28;20176;-76
2022/05/26 09:32:48;;;;;;;0.40;0.40;;;20.10;1.00;;;;;;5033953;28;20207;-76
2022/05/26 09:35:20;;;;;;;0.30;0.30;;;20.00;1.00;;;;;;5033075;28;20231;-76
2022/05/26 09:37:49;;;;;;;0.30;0.30;;;20.00;1.00;;;;;;5034244;28;20179;-77
2022/05/26 09:40:17;;;;;;;0.30;0.30;;;19.90;1.00;;;;;;5033735;28;20172;-76
2022/05/26 09:42:44;;;;;;;0.30;0.30;;;20.00;1.00;;;;;;5034218;28;20200;-76
2022/05/26 09:45:16;;;;;;;0.33;0.33;;;20.30;1.00;;;;;;5034024;28;20203;-77
2022/05/26 09:47:58;;;;;;;0.30;0.30;;;20.70;1.00;;;;;;5033544;28;20702;-78
2022/05/26 09:50:47;;;;;;;0.40;0.40;;;20.90;1.00;;;;;;5033140;28;20203;-76
2022/05/26 09:53:13;;;;;;;0.40;0.40;;;21.10;1.00;;;;;;5033727;28;20260;-76
2022/05/26 09:55:49;;;;;;;0.30;0.30;;;21.20;1.00;;;;;;5033730;28;20218;-75
2022/05/26 09:58:30;;;;;;;0.30;0.30;;;21.00;1.00;;;;;;5033645;28;20180;-78
2022/05/26 10:01:01;;;;;;;0.30;0.30;;;20.80;1.00;;;;;;5033881;28;20723;-76
2022/05/26 10:03:36;;;;;;;0.30;0.30;;;20.60;1.00;;;;;;5033810;28;20187;-75
2022/05/26 10:06:25;;;;;;;0.30;0.30;;;20.50;1.00;;;;;;5033592;28;20180;-75
2022/05/26 10:09:25;;;;;;;0.30;0.30;;;20.00;1.00;;;;;;5033126;28;20581;-76
2022/05/26 10:11:59;;;;;;;0.30;0.30;;;19.70;1.00;;;;;;5016355;28;20262;-76
2022/05/26 10:15:02;;;;;;;0.37;0.37;;;19.50;1.00;;;;;;5031357;28;20167;-75
2022/05/26 10:17:58;;;;;;;0.30;0.30;;;19.50;1.00;;;;;;5033310;28;20183;-75
2022/05/26 10:20:51;;;;;;;0.30;0.30;;;19.40;1.00;;;;;;5032587;28;20550;-76
2022/05/26 10:23:32;;;;;;;0.30;0.30;;;19.50;1.00;;;;;;5033084;28;20184;-76
2022/05/26 10:26:17;;;;;;;0.30;0.30;;;19.50;1.00;;;;;;5033349;28;20203;-76
2022/05/26 10:28:58;;;;;;;0.30;0.30;;;19.50;1.00;;;;;;5032930;28;20521;-76
2022/05/26 10:31:49;;;;;;;0.30;0.30;;;19.50;1.00;;;;;;5032802;28;20199;-76
2022/05/26 10:34:45;;;;;;;0.30;0.30;;;19.60;1.00;;;;;;5032536;28;20216;-77
2022/05/26 10:37:36;;;;;;;0.30;0.30;;;19.50;1.00;;;;;;5032904;28;20237;-75
2022/05/26 10:40:27;;;;;;;0.30;0.30;;;19.20;1.00;;;;;;5032501;28;20183;-76
2022/05/26 10:42:59;;;;;;;0.30;0.30;;;19.10;1.00;;;;;;5032865;28;20196;-75
2022/05/26 10:45:37;;;;;;;0.30;0.30;;;19.10;1.00;;;;;;5033069;28;20176;-76
2022/05/26 10:48:08;;;;;;;0.47;0.47;;;19.10;1.00;;;;;;5025284;28;20191;-77
2022/05/26 10:50:41;;;;;;;0.30;0.30;;;19.10;1.00;;;;;;5032205;28;20183;-77
2022/05/26 10:53:41;;;;;;;0.30;0.30;;;19.10;1.00;;;;;;5032964;28;20171;-78
2022/05/26 10:56:34;;;;;;;0.30;0.30;;;19.00;1.00;;;;;;5032475;28;20219;-76
2022/05/26 10:59:33;;;;;;;0.40;0.40;;;19.00;1.00;;;;;;5032747;28;20266;-76
2022/05/26 11:02:19;;;;;;;0.30;0.30;;;19.20;1.00;;;;;;5028565;28;20217;-77
2022/05/26 11:05:05;;;;;;;0.30;0.30;;;19.30;1.00;;;;;;5026737;28;20186;-78
2022/05/26 11:07:30;;;;;;;0.30;0.30;;;19.40;1.00;;;;;;5029407;28;20175;-77
2022/05/26 11:10:02;;;;;;;0.40;0.40;;;19.60;1.00;;;;;;5031219;28;20172;-77
2022/05/26 11:12:46;;;;;;;0.40;0.40;;;19.70;1.00;;;;;;5031666;28;20568;-78
2022/05/26 11:18:40;;;;;;;0.30;0.30;;;19.50;1.00;;;;;;5031004;28;20186;-77
2022/05/26 11:21:05;;;;;;;0.30;0.30;;;19.20;1.00;;;;;;5031618;28;20204;-77
2022/05/26 11:23:37;;;;;;;0.30;0.30;;;19.10;1.00;;;;;;5030681;28;20168;-78
2022/05/26 11:26:07;;;;;;;0.40;0.40;;;19.00;1.00;;;;;;5030896;28;20575;-78
2022/05/26 11:28:47;;;;;;;0.30;0.30;;;18.90;1.00;;;;;;5030895;28;20172;-77
2022/05/26 11:37:29;;;;;;;0.30;0.30;;;18.80;1.00;;;;;;5032235;28;20182;-77
2022/05/26 11:40:00;;;;;;;0.30;0.30;;;18.80;1.00;;;;;;5031255;28;20186;-78
2022/05/26 11:42:46;;;;;;;0.30;0.30;;;18.90;1.00;;;;;;5031883;28;20282;-78
2022/05/26 11:45:19;;;;;;;0.40;0.40;;;18.90;1.00;;;;;;5032202;28;20199;-78
2022/05/26 11:47:51;;;;;;;0.40;0.40;;;18.80;1.00;;;;;;5032225;28;20575;-79
2022/05/26 11:50:42;;;;;;;0.30;0.30;;;18.90;1.00;;;;;;5031693;28;20266;-77
2022/05/26 11:53:35;;;;;;;0.30;0.30;;;19.10;1.00;;;;;;5033313;28;20183;-77
2022/05/26 11:56:04;;;;;;;0.33;0.33;;;19.20;1.00;;;;;;5030440;28;20253;-78
2022/05/26 11:58:42;;;;;;;0.40;0.40;;;19.20;1.00;;;;;;5034588;28;20262;-78
2022/05/26 12:01:13;;;;;;;0.30;0.30;;;19.30;1.00;;;;;;5032362;28;20230;-76
2022/05/26 12:03:51;;;;;;;0.40;0.40;;;19.40;1.00;;;;;;5031775;28;20246;-78
2022/05/26 12:06:30;;;;;;;0.30;0.30;;;19.40;1.00;;;;;;5031636;28;20178;-79
2022/05/26 12:09:02;;;;;;;0.40;0.40;;;19.50;1.00;;;;;;5030155;28;20278;-79
2022/05/26 12:12:26;;;;;;;0.30;0.30;;;19.70;1.00;;;;;;5030094;28;20266;-79
2022/05/26 12:14:55;;;;;;;0.33;0.33;;;19.70;1.00;;;;;;5033025;28;20204;-78
2022/05/26 12:17:40;;;;;;;0.30;0.30;;;19.70;1.00;;;;;;5031078;28;20176;-79
2022/05/26 12:20:12;;;;;;;0.30;0.30;;;19.70;1.00;;;;;;5031303;28;20191;-78
2022/05/26 12:22:49;;;;;;;0.30;0.30;;;20.00;1.00;;;;;;5034253;28;20195;-79
2022/05/26 12:25:17;;;;;;;0.40;0.40;;;20.20;1.00;;;;;;5038497;28;20176;-79
2022/05/26 12:27:51;;;;;;;0.20;0.20;;;20.50;1.00;;;;;;5035022;28;20238;-77
2022/05/26 12:30:44;;;;;;;0.40;0.40;;;20.70;1.00;;;;;;5043891;28;20237;-78
2022/05/26 12:33:22;;;;;;;0.23;0.23;;;20.90;1.00;;;;;;5041723;28;20563;-79
2022/05/26 12:36:07;;;;;;;0.30;0.30;;;20.80;1.00;;;;;;5035738;28;20223;-80
2022/05/26 12:38:51;;;;;;;0.30;0.30;;;20.70;1.00;;;;;;5041969;28;20184;-79
2022/05/26 12:41:37;;;;;;;0.30;0.30;;;20.50;1.00;;;;;;5045485;28;20195;-78
2022/05/26 12:44:40;;;;;;;0.30;0.30;;;20.50;1.00;;;;;;5037803;28;20183;-77
2022/05/26 12:47:36;;;;;;;0.30;0.30;;;20.20;1.00;;;;;;5040450;28;20182;-76
2022/05/26 12:50:10;;;;;;;0.30;0.30;;;20.20;1.00;;;;;;5038248;28;20231;-78
2022/05/26 12:52:39;;;;;;;0.30;0.30;;;20.20;1.00;;;;;;5037546;28;20203;-78
2022/05/26 12:55:17;;;;;;;0.30;0.30;;;20.10;1.00;;;;;;5038936;28;20206;-78
2022/05/26 12:58:06;;;;;;;0.30;0.30;;;20.10;1.00;;;;;;5040423;28;20178;-77
2022/05/26 13:00:44;;;;;;;0.30;0.30;;;20.10;1.00;;;;;;5039426;28;20756;-77
2022/05/26 13:03:20;;;;;;;0.30;0.30;;;20.40;1.00;;;;;;5040865;28;20672;-77
2022/05/26 13:05:52;;;;;;;0.40;0.40;;;20.80;1.00;;;;;;5034432;28;20214;-76
2022/05/26 13:08:21;;;;;;;0.30;0.30;;;21.20;1.00;;;;;;5034357;28;20621;-77
2022/05/26 13:10:51;;;;;;;0.33;0.33;;;21.60;1.00;;;;;;5031416;28;20190;-77
2022/05/26 13:13:44;;;;;;;0.30;0.30;;;21.80;1.00;;;;;;5035055;28;20235;-78
2022/05/26 13:16:40;;;;;;;0.30;0.30;;;22.20;1.00;;;;;;5036690;28;20547;-76
2022/05/26 13:19:39;;;;;;;0.33;0.33;;;22.30;1.00;;;;;;5033922;28;20202;-76
2022/05/26 13:22:12;;;;;;;0.27;0.27;;;22.10;1.00;;;;;;5037085;28;20199;-76
2022/05/26 13:24:37;;;;;;;0.40;0.40;;;22.10;1.00;;;;;;5040735;28;20765;-78
2022/05/26 13:27:09;;;;;;;0.30;0.30;;;22.00;1.00;;;;;;5042008;28;20263;-77
2022/05/26 13:29:36;;;;;;;0.30;0.30;;;21.90;1.00;;;;;;5038855;28;20195;-77
2022/05/26 13:34:52;;;;;;;0.30;0.30;;;23.00;1.00;;;;;;5038494;28;20564;-77
2022/05/26 13:37:26;;;;;;;0.33;0.33;;;23.70;1.00;;;;;;5035055;28;20182;-77
2022/05/26 13:40:18;;;;;;;0.30;0.30;;;24.30;1.00;;;;;;5033668;28;20305;-78
2022/05/26 13:42:47;;;;;;;0.30;0.30;;;24.20;1.00;;;;;;5031044;28;20231;-77
2022/05/26 13:45:26;;;;;;;0.40;0.40;;;23.80;1.00;;;;;;5033705;28;20191;-77
2022/05/26 13:48:21;;;;;;;0.30;0.30;;;23.50;1.00;;;;;;5033086;28;20179;-77
2022/05/26 13:50:50;;;;;;;0.30;0.30;;;23.20;1.00;;;;;;5033029;28;20660;-77
2022/05/26 13:53:17;;;;;;;0.30;0.30;;;23.00;1.00;;;;;;5033862;28;20234;-77
2022/05/26 13:55:50;;;;;;;0.33;0.33;;;22.90;1.00;;;;;;5033670;28;20207;-77
2022/05/26 13:58:18;;;;;;;0.30;0.30;;;23.00;1.00;;;;;;5034694;28;20172;-77
2022/05/26 14:00:44;;;;;;;0.33;0.33;;;23.00;1.00;;;;;;5032809;28;20188;-78
2022/05/26 14:03:25;;;;;;;0.30;0.30;;;23.00;1.00;;;;;;5033693;28;20212;-78
2022/05/26 14:06:10;;;;;;;0.30;0.30;;;23.30;1.00;;;;;;5032150;28;20179;-77
2022/05/26 14:08:49;;;;;;;0.37;0.37;;;23.60;1.00;;;;;;5035398;28;20541;-78